createdAt,value
2017-11-06T00:02:08.988Z,99582.09
2017-11-06T00:04:34.943Z,99584.61
2017-11-06T00:07:00.994Z,99586.28
2017-11-06T00:09:26.973Z,99587.14
2017-11-06T00:11:52.922Z,99589.66
2017-11-06T00:14:18.934Z,99595.13
2017-11-06T00:16:44.870Z,99594.27
2017-11-06T00:19:10.821Z,99593.84
2017-11-06T00:21:36.794Z,99596.81
2017-11-06T00:24:02.786Z,99593.03
2017-11-06T00:26:28.764Z,99593.88
2017-11-06T00:28:54.695Z,99591.33
2017-11-06T00:31:20.624Z,99598.48
2017-11-06T00:33:46.548Z,99600.58
2017-11-06T00:36:12.490Z,99606.06
2017-11-06T00:38:38.432Z,99611.50
2017-11-06T00:41:04.379Z,99608.98
2017-11-06T00:43:30.351Z,99611.09
2017-11-06T00:45:56.287Z,99611.11
2017-11-06T00:48:22.270Z,99616.59
2017-11-06T00:50:48.263Z,99614.05
2017-11-06T00:53:14.200Z,99615.30
2017-11-06T00:55:40.130Z,99613.58
2017-11-06T00:58:06.082Z,99617.41
2017-11-06T01:00:32.020Z,99622.45
2017-11-06T01:02:57.963Z,99626.65
2017-11-06T01:05:23.892Z,99629.17
2017-11-06T01:07:49.850Z,99633.38
2017-11-06T01:10:15.790Z,99638.02
2017-11-06T01:12:41.766Z,99632.53
2017-11-06T01:15:07.688Z,99638.42
2017-11-06T01:17:33.650Z,99639.67
2017-11-06T01:19:59.747Z,99643.45
2017-11-06T01:22:25.688Z,99639.59
2017-11-06T01:24:51.668Z,99635.87
2017-11-06T01:27:17.641Z,99644.27
2017-11-06T01:29:43.590Z,99650.98
2017-11-06T01:32:09.524Z,99666.11
2017-11-06T01:34:35.467Z,99676.21
2017-11-06T01:37:01.414Z,99682.95
2017-11-06T01:39:27.393Z,99675.82
2017-11-06T01:41:53.334Z,99671.67
2017-11-06T01:44:19.281Z,99685.06
2017-11-06T01:46:45.224Z,99692.20
2017-11-06T01:49:11.164Z,99700.61
2017-11-06T01:51:37.098Z,99706.50
2017-11-06T01:54:03.076Z,99699.31
2017-11-06T01:56:29.018Z,99698.48
2017-11-06T01:58:54.960Z,99698.89
2017-11-06T02:01:20.908Z,99699.75
2017-11-06T02:03:46.857Z,99697.65
2017-11-06T02:06:12.798Z,99692.21
2017-11-06T02:08:38.730Z,99692.19
2017-11-06T02:11:04.665Z,99697.23
2017-11-06T02:13:30.636Z,99701.03
2017-11-06T02:15:56.598Z,99701.91
2017-11-06T02:18:22.566Z,99705.64
2017-11-06T02:20:48.538Z,99705.23
2017-11-06T02:23:14.474Z,99709.00
2017-11-06T02:25:40.432Z,99704.78
2017-11-06T02:28:06.356Z,99706.92
2017-11-06T02:30:32.316Z,99706.90
2017-11-06T02:32:58.246Z,99704.30
2017-11-06T02:35:24.182Z,99711.44
2017-11-06T02:37:50.119Z,99708.06
2017-11-06T02:40:16.095Z,99707.67
2017-11-06T02:42:42.051Z,99706.88
2017-11-06T02:45:08.034Z,99706.44
2017-11-06T02:47:33.962Z,99712.75
2017-11-06T02:49:59.992Z,99708.92
2017-11-06T02:52:25.928Z,99708.15
2017-11-06T02:54:51.859Z,99704.28
2017-11-06T02:57:17.802Z,99705.95
2017-11-06T02:59:43.911Z,99716.98
2017-11-06T03:02:09.843Z,99724.05
2017-11-06T03:04:35.774Z,99736.23
2017-11-06T03:07:01.749Z,99744.69
2017-11-06T03:09:27.742Z,99748.00
2017-11-06T03:11:53.686Z,99745.98
2017-11-06T03:14:19.655Z,99744.69
2017-11-06T03:16:45.612Z,99755.14
2017-11-06T03:19:11.562Z,99757.63
2017-11-06T03:21:37.521Z,99758.92
2017-11-06T03:24:03.492Z,99769.00
2017-11-06T03:26:29.421Z,99780.45
2017-11-06T03:28:55.383Z,99781.72
2017-11-06T03:31:21.324Z,99786.61
2017-11-06T03:33:47.300Z,99789.50
2017-11-06T03:36:13.222Z,99794.59
2017-11-06T03:38:39.143Z,99799.59
2017-11-06T03:41:05.087Z,99804.29
2017-11-06T03:43:31.032Z,99809.76
2017-11-06T03:45:56.958Z,99807.75
2017-11-06T03:48:22.894Z,99809.36
2017-11-06T03:50:48.840Z,99810.53
2017-11-06T03:53:14.766Z,99809.77
2017-11-06T03:55:40.712Z,99819.35
2017-11-06T03:58:06.646Z,99817.25
2017-11-06T04:00:32.598Z,99815.09
2017-11-06T04:02:58.532Z,99821.47
2017-11-06T04:05:24.462Z,99837.34
2017-11-06T04:07:50.414Z,99825.95
2017-11-06T04:10:16.372Z,99831.94
2017-11-06T04:12:42.333Z,99838.31
2017-11-06T04:15:08.266Z,99836.62
2017-11-06T04:17:34.224Z,99831.93
2017-11-06T04:20:00.194Z,99838.64
2017-11-06T04:22:26.154Z,99835.69
2017-11-06T04:24:52.150Z,99835.30
2017-11-06T04:27:18.124Z,99834.87
2017-11-06T04:29:44.082Z,99839.56
2017-11-06T04:32:10.027Z,99845.01
2017-11-06T04:34:35.987Z,99841.17
2017-11-06T04:37:01.929Z,99843.81
2017-11-06T04:39:27.884Z,99848.31
2017-11-06T04:41:53.864Z,99855.75
2017-11-06T04:44:19.844Z,99863.45
2017-11-06T04:46:45.792Z,99867.66
2017-11-06T04:49:11.791Z,99862.09
2017-11-06T04:51:37.845Z,99862.96
2017-11-06T04:54:03.940Z,99872.16
2017-11-06T04:56:29.876Z,99878.02
2017-11-06T04:58:55.832Z,99884.78
2017-11-06T05:01:21.856Z,99891.40
2017-11-06T05:03:47.785Z,99894.86
2017-11-06T05:06:13.735Z,99900.67
2017-11-06T05:08:39.694Z,99916.19
2017-11-06T05:11:05.628Z,99923.41
2017-11-06T05:13:31.581Z,99926.80
2017-11-06T05:15:57.511Z,99932.32
2017-11-06T05:18:23.437Z,99931.89
2017-11-06T05:20:49.395Z,99935.16
2017-11-06T05:23:15.374Z,99938.98
2017-11-06T05:25:41.320Z,99939.44
2017-11-06T05:28:07.275Z,99941.39
2017-11-06T05:30:33.226Z,99941.32
2017-11-06T05:32:59.190Z,99949.76
2017-11-06T05:35:25.135Z,99953.52
2017-11-06T05:37:51.070Z,99953.95
2017-11-06T05:40:17.008Z,99957.31
2017-11-06T05:42:42.956Z,99959.44
2017-11-06T05:45:08.903Z,99957.41
2017-11-06T05:47:34.860Z,99956.54
2017-11-06T05:50:00.823Z,99955.48
2017-11-06T05:52:26.844Z,99957.65
2017-11-06T05:54:52.835Z,99955.45
2017-11-06T05:57:18.817Z,99957.38
2017-11-06T05:59:44.770Z,99966.05
2017-11-06T06:02:10.707Z,99968.62
2017-11-06T06:04:36.683Z,99972.71
2017-11-06T06:07:02.628Z,99976.94
2017-11-06T06:09:28.584Z,99984.63
2017-11-06T06:11:54.515Z,99991.69
2017-11-06T06:14:20.470Z,100006.78
2017-11-06T06:16:46.421Z,100011.44
2017-11-06T06:19:12.348Z,100019.21
2017-11-06T06:21:38.295Z,100015.48
2017-11-06T06:24:04.244Z,100025.75
2017-11-06T06:26:30.183Z,100032.80
2017-11-06T06:28:56.155Z,100032.36
2017-11-06T06:31:22.086Z,100038.75
2017-11-06T06:33:48.034Z,100037.09
2017-11-06T06:36:13.963Z,100038.74
2017-11-06T06:38:39.944Z,100044.92
2017-11-06T06:41:05.890Z,100050.02
2017-11-06T06:43:31.849Z,100056.77
2017-11-06T06:45:57.781Z,100057.52
2017-11-06T06:48:23.725Z,100070.56
2017-11-06T06:50:49.654Z,100076.03
2017-11-06T06:53:15.608Z,100079.41
2017-11-06T06:55:41.559Z,100083.81
2017-11-06T06:58:07.502Z,100090.02
2017-11-06T07:00:33.498Z,100096.80
2017-11-06T07:02:59.468Z,100101.31
2017-11-06T07:05:25.434Z,100111.43
2017-11-06T07:07:51.395Z,100117.27
2017-11-06T07:10:17.331Z,100118.66
2017-11-06T07:12:43.287Z,100126.44
2017-11-06T07:15:09.239Z,100124.39
2017-11-06T07:17:35.199Z,100130.28
2017-11-06T07:20:01.139Z,100140.84
2017-11-06T07:22:27.101Z,100145.03
2017-11-06T07:24:53.031Z,100147.86
2017-11-06T07:27:18.982Z,100152.11
2017-11-06T07:29:44.913Z,100159.25
2017-11-06T07:32:10.900Z,100160.52
2017-11-06T07:34:36.852Z,100161.50
2017-11-06T07:37:02.819Z,100166.16
2017-11-06T07:39:28.779Z,100165.32
2017-11-06T07:41:54.755Z,100169.88
2017-11-06T07:44:20.700Z,100169.52
2017-11-06T07:46:46.652Z,100173.63
2017-11-06T07:49:12.650Z,100179.58
2017-11-06T07:51:38.597Z,100174.88
2017-11-06T07:54:04.527Z,100180.31
2017-11-06T07:56:30.473Z,100183.34
2017-11-06T07:58:56.451Z,100186.37
2017-11-06T08:01:22.420Z,100187.72
2017-11-06T08:03:48.362Z,100189.41
2017-11-06T08:06:14.306Z,100188.66
2017-11-06T08:08:40.253Z,100190.81
2017-11-06T08:11:06.220Z,100188.67
2017-11-06T08:13:32.193Z,100193.30
2017-11-06T08:15:58.124Z,100203.59
2017-11-06T08:18:24.116Z,100203.06
2017-11-06T08:20:50.070Z,100199.21
2017-11-06T08:23:16.008Z,100200.51
2017-11-06T08:25:41.960Z,100193.80
2017-11-06T08:28:07.906Z,100193.84
2017-11-06T08:30:33.885Z,100195.12
2017-11-06T08:32:59.838Z,100206.94
2017-11-06T08:35:25.773Z,100209.00
2017-11-06T08:37:51.723Z,100212.74
2017-11-06T08:40:17.691Z,100212.28
2017-11-06T08:42:43.645Z,100226.62
2017-11-06T08:45:09.603Z,100227.75
2017-11-06T08:47:35.537Z,100228.38
2017-11-06T08:50:01.484Z,100227.39
2017-11-06T08:52:27.446Z,100230.02
2017-11-06T08:54:53.387Z,100229.98
2017-11-06T08:57:19.329Z,100238.45
2017-11-06T08:59:45.268Z,100246.83
2017-11-06T09:02:11.212Z,100257.67
2017-11-06T09:04:37.167Z,100261.13
2017-11-06T09:07:03.090Z,100268.38
2017-11-06T09:09:29.027Z,100263.11
2017-11-06T09:11:54.967Z,100262.67
2017-11-06T09:14:21.950Z,100271.67
2017-11-06T09:16:47.914Z,100274.38
2017-11-06T09:19:13.875Z,100271.42
2017-11-06T09:21:39.895Z,100285.33
2017-11-06T09:24:05.980Z,100281.54
2017-11-06T09:26:31.906Z,100293.92
2017-11-06T09:28:58.016Z,100290.64
2017-11-06T09:31:23.970Z,100286.51
2017-11-06T09:33:49.940Z,100281.13
2017-11-06T09:36:15.912Z,100283.43
2017-11-06T09:38:41.855Z,100283.53
2017-11-06T09:41:07.844Z,100287.25
2017-11-06T09:43:33.824Z,100295.45
2017-11-06T09:45:59.775Z,100294.84
2017-11-06T09:48:25.750Z,100292.20
2017-11-06T09:50:51.692Z,100296.04
2017-11-06T09:53:17.680Z,100295.27
2017-11-06T09:55:43.655Z,100303.25
2017-11-06T09:58:09.648Z,100306.86
2017-11-06T10:00:35.697Z,100297.69
2017-11-06T10:03:01.637Z,100298.31
2017-11-06T10:05:27.659Z,100306.73
2017-11-06T10:07:53.600Z,100311.79
2017-11-06T10:10:19.613Z,100316.38
2017-11-06T10:12:45.568Z,100318.91
2017-11-06T10:15:11.518Z,100317.59
2017-11-06T10:17:37.489Z,100306.02
2017-11-06T10:20:03.452Z,100309.25
2017-11-06T10:22:29.452Z,100316.00
2017-11-06T10:24:55.384Z,100318.59
2017-11-06T10:27:21.390Z,100322.73
2017-11-06T10:29:47.340Z,100321.95
2017-11-06T10:32:13.925Z,100325.01
2017-11-06T10:34:39.901Z,100337.68
2017-11-06T10:37:05.980Z,100323.57
2017-11-06T10:39:31.921Z,100329.02
2017-11-06T10:41:57.845Z,100334.53
2017-11-06T10:44:23.798Z,100339.11
2017-11-06T10:46:49.774Z,100336.73
2017-11-06T10:49:15.756Z,100341.33
2017-11-06T10:51:41.782Z,100347.15
2017-11-06T10:54:07.744Z,100345.91
2017-11-06T10:56:33.757Z,100344.74
2017-11-06T10:58:59.759Z,100343.81
2017-11-06T11:01:25.700Z,100343.36
2017-11-06T11:03:51.651Z,100340.45
2017-11-06T11:06:17.610Z,100341.33
2017-11-06T11:08:43.580Z,100340.30
2017-11-06T11:11:09.550Z,100344.83
2017-11-06T11:13:35.615Z,100347.71
2017-11-06T11:16:01.567Z,100352.00
2017-11-06T11:18:27.676Z,100360.06
2017-11-06T11:20:53.648Z,100360.33
2017-11-06T11:23:19.667Z,100368.34
2017-11-06T11:25:45.620Z,100370.28
2017-11-06T11:28:11.598Z,100370.22
2017-11-06T11:30:37.546Z,100378.17
2017-11-06T11:33:03.480Z,100379.09
2017-11-06T11:35:29.510Z,100378.39
2017-11-06T11:37:55.440Z,100380.06
2017-11-06T11:40:21.388Z,100378.64
2017-11-06T11:42:47.375Z,100377.05
2017-11-06T11:45:13.366Z,100375.77
2017-11-06T11:47:39.314Z,100377.94
2017-11-06T11:50:05.266Z,100381.00
2017-11-06T11:52:31.260Z,100381.88
2017-11-06T11:54:57.232Z,100389.06
2017-11-06T11:57:23.204Z,100385.97
2017-11-06T11:59:49.148Z,100385.77
2017-11-06T12:02:15.150Z,100390.62
2017-11-06T12:04:41.110Z,100386.11
2017-11-06T12:07:07.071Z,100384.83
2017-11-06T12:09:33.010Z,100386.41
2017-11-06T12:11:58.980Z,100392.42
2017-11-06T12:14:24.934Z,100386.04
2017-11-06T12:16:50.920Z,100385.72
2017-11-06T12:19:16.848Z,100391.95
2017-11-06T12:21:42.818Z,100395.38
2017-11-06T12:24:08.794Z,100391.12
2017-11-06T12:26:34.793Z,100391.56
2017-11-06T12:29:00.828Z,100394.70
2017-11-06T12:31:26.758Z,100393.25
2017-11-06T12:33:52.724Z,100387.39
2017-11-06T12:36:18.690Z,100394.03
2017-11-06T12:38:44.682Z,100389.37
2017-11-06T12:41:10.622Z,100387.36
2017-11-06T12:43:36.552Z,100388.30
2017-11-06T12:46:02.564Z,100385.75
2017-11-06T12:48:28.498Z,100385.72
2017-11-06T12:50:54.463Z,100387.36
2017-11-06T12:53:21.556Z,100387.84
2017-11-06T12:55:47.530Z,100396.09
2017-11-06T12:58:13.508Z,100402.09
2017-11-06T13:00:39.440Z,100403.28
2017-11-06T13:03:05.440Z,100405.50
2017-11-06T13:05:31.472Z,100406.33
2017-11-06T13:07:57.480Z,100408.81
2017-11-06T13:10:23.458Z,100407.92
2017-11-06T13:12:49.424Z,100406.25
2017-11-06T13:15:15.390Z,100415.22
2017-11-06T13:17:41.337Z,100416.17
2017-11-06T13:20:07.276Z,100416.19
2017-11-06T13:22:34.232Z,100416.45
2017-11-06T13:25:00.177Z,100418.66
2017-11-06T13:27:26.184Z,100416.27
2017-11-06T13:29:52.116Z,100415.73
2017-11-06T13:32:18.069Z,100424.48
2017-11-06T13:34:44.048Z,100417.42
2017-11-06T13:37:09.992Z,100428.77
2017-11-06T13:39:35.939Z,100434.34
2017-11-06T13:42:01.916Z,100430.32
2017-11-06T13:44:27.892Z,100432.28
2017-11-06T13:46:53.838Z,100433.16
2017-11-06T13:49:19.792Z,100443.45
2017-11-06T13:51:45.739Z,100453.13
2017-11-06T13:54:11.705Z,100455.15
2017-11-06T13:56:37.648Z,100458.05
2017-11-06T13:59:03.592Z,100461.46
2017-11-06T14:01:29.554Z,100468.18
2017-11-06T14:03:55.498Z,100468.63
2017-11-06T14:06:21.448Z,100462.77
2017-11-06T14:08:47.404Z,100467.27
2017-11-06T14:11:13.354Z,100469.14
2017-11-06T14:13:39.844Z,100479.98
2017-11-06T14:16:05.792Z,100479.23
2017-11-06T14:18:31.768Z,100481.81
2017-11-06T14:20:57.802Z,100483.82
2017-11-06T14:23:23.752Z,100485.77
2017-11-06T14:25:49.720Z,100490.91
2017-11-06T14:28:15.656Z,100500.55
2017-11-06T14:30:41.812Z,100502.17
2017-11-06T14:33:07.756Z,100503.14
2017-11-06T14:35:33.697Z,100504.80
2017-11-06T14:37:59.655Z,100508.41
2017-11-06T14:40:25.590Z,100515.66
2017-11-06T14:42:51.539Z,100513.97
2017-11-06T14:45:17.467Z,100519.44
2017-11-06T14:47:43.426Z,100521.65
2017-11-06T14:50:09.364Z,100524.53
2017-11-06T14:52:35.323Z,100532.27
2017-11-06T14:55:01.269Z,100525.95
2017-11-06T14:57:27.213Z,100534.81
2017-11-06T14:59:53.200Z,100532.35
2017-11-06T15:02:19.159Z,100529.04
2017-11-06T15:04:45.124Z,100531.91
2017-11-06T15:07:11.064Z,100527.67
2017-11-06T15:09:37.028Z,100524.63
2017-11-06T15:12:02.968Z,100529.79
2017-11-06T15:14:29.912Z,100532.34
2017-11-06T15:16:55.864Z,100536.57
2017-11-06T15:19:21.803Z,100542.84
2017-11-06T15:21:47.790Z,100542.05
2017-11-06T15:24:13.735Z,100545.98
2017-11-06T15:26:39.668Z,100545.17
2017-11-06T15:29:05.634Z,100554.45
2017-11-06T15:31:31.628Z,100554.44
2017-11-06T15:33:57.571Z,100561.22
2017-11-06T15:36:23.517Z,100563.82
2017-11-06T15:38:49.460Z,100563.34
2017-11-06T15:41:15.437Z,100567.58
2017-11-06T15:43:41.403Z,100566.86
2017-11-06T15:46:07.330Z,100560.79
2017-11-06T15:48:33.285Z,100559.84
2017-11-06T15:50:59.225Z,100566.03
2017-11-06T15:53:25.528Z,100566.73
2017-11-06T15:55:51.468Z,100557.42
2017-11-06T15:58:17.470Z,100563.65
2017-11-06T16:00:43.418Z,100570.34
2017-11-06T16:03:09.364Z,100563.95
2017-11-06T16:05:35.616Z,100561.33
2017-11-06T16:08:01.547Z,100565.13
2017-11-06T16:10:27.519Z,100571.84
2017-11-06T16:12:53.458Z,100577.17
2017-11-06T16:15:19.413Z,100575.48
2017-11-06T16:17:45.387Z,100578.42
2017-11-06T16:20:11.326Z,100585.52
2017-11-06T16:22:37.488Z,100591.97
2017-11-06T16:25:03.456Z,100591.71
2017-11-06T16:27:29.411Z,100592.80
2017-11-06T16:29:55.351Z,100604.27
2017-11-06T16:32:21.341Z,100604.55
2017-11-06T16:34:47.530Z,100614.30
2017-11-06T16:37:13.544Z,100617.87
2017-11-06T16:39:39.506Z,100627.31
2017-11-06T16:42:05.452Z,100626.38
2017-11-06T16:44:31.510Z,100633.80
2017-11-06T16:46:57.814Z,100633.61
2017-11-06T16:49:23.775Z,100631.83
2017-11-06T16:51:49.784Z,100636.38
2017-11-06T16:54:15.737Z,100627.03
2017-11-06T16:56:41.689Z,100624.94
2017-11-06T16:59:07.660Z,100630.27
2017-11-06T17:01:33.600Z,100630.53
2017-11-06T17:03:59.663Z,100638.84
2017-11-06T17:06:25.629Z,100645.85
2017-11-06T17:08:51.627Z,100654.42
2017-11-06T17:11:17.613Z,100647.78
2017-11-06T17:13:43.668Z,100657.72
2017-11-06T17:16:09.653Z,100650.18
2017-11-06T17:18:35.595Z,100650.98
2017-11-06T17:21:01.542Z,100653.50
2017-11-06T17:23:27.488Z,100661.92
2017-11-06T17:25:53.487Z,100666.77
2017-11-06T17:28:19.497Z,100671.23
2017-11-06T17:30:45.456Z,100670.04
2017-11-06T17:33:11.412Z,100679.47
2017-11-06T17:35:37.399Z,100688.02
2017-11-06T17:38:03.345Z,100683.63
2017-11-06T17:40:30.137Z,100680.89
2017-11-06T17:43:01.165Z,100684.84
2017-11-06T17:47:58.961Z,100680.30
2017-11-06T17:50:24.920Z,100684.03
2017-11-06T17:52:51.199Z,100682.64
2017-11-06T17:55:17.242Z,100683.22
2017-11-06T17:57:43.268Z,100688.41
2017-11-06T18:00:09.222Z,100690.18
2017-11-06T18:02:35.202Z,100691.39
2017-11-06T18:05:01.320Z,100692.82
2017-11-06T18:07:27.381Z,100696.17
2017-11-06T18:09:53.422Z,100696.97
2017-11-06T18:12:19.687Z,100693.59
2017-11-06T18:14:45.745Z,100696.23
2017-11-06T18:17:11.955Z,100698.27
2017-11-06T18:19:37.904Z,100698.88
2017-11-06T18:22:03.863Z,100699.92
2017-11-06T18:24:29.843Z,100698.76
2017-11-06T18:26:55.846Z,100697.80
2017-11-06T18:29:21.833Z,100700.31
2017-11-06T18:31:47.932Z,100705.41
2017-11-06T18:34:13.983Z,100705.77
2017-11-06T18:36:40.042Z,100711.23
2017-11-06T18:39:05.996Z,100710.98
2017-11-06T18:41:31.975Z,100711.69
2017-11-06T18:43:57.935Z,100715.79
2017-11-06T18:46:24.045Z,100713.70
2017-11-06T18:48:50.011Z,100708.87
2017-11-06T18:51:15.998Z,100718.42
2017-11-06T18:53:41.961Z,100714.45
2017-11-06T18:56:08.133Z,100714.20
2017-11-06T18:58:34.114Z,100716.73
2017-11-06T19:01:00.091Z,100715.54
2017-11-06T19:03:26.131Z,100711.09
2017-11-06T19:05:52.079Z,100715.34
2017-11-06T19:08:18.024Z,100713.71
2017-11-06T19:10:43.976Z,100715.64
2017-11-06T19:13:09.976Z,100722.50
2017-11-06T19:15:35.956Z,100720.25
2017-11-06T19:18:02.007Z,100724.26
2017-11-06T19:20:27.968Z,100727.24
2017-11-06T19:22:53.920Z,100732.98
2017-11-06T19:25:20.321Z,100731.52
2017-11-06T19:27:46.288Z,100737.65
2017-11-06T19:30:12.884Z,100740.70
2017-11-06T19:32:38.877Z,100739.71
2017-11-06T19:35:04.829Z,100738.98
2017-11-06T19:37:30.814Z,100738.34
2017-11-06T19:39:56.768Z,100742.79
2017-11-06T19:42:22.761Z,100745.05
2017-11-06T19:44:48.829Z,100741.77
2017-11-06T19:47:14.825Z,100745.28
2017-11-06T19:49:40.887Z,100752.28
2017-11-06T19:52:06.834Z,100747.00
2017-11-06T19:54:32.781Z,100750.66
2017-11-06T19:56:58.802Z,100750.81
2017-11-06T19:59:24.757Z,100751.21
2017-11-06T20:01:50.689Z,100750.59
2017-11-06T20:04:16.635Z,100749.89
2017-11-06T20:06:42.677Z,100745.48
2017-11-06T20:09:08.677Z,100757.42
2017-11-06T20:11:34.668Z,100754.52
2017-11-06T20:14:00.659Z,100764.29
2017-11-06T20:16:26.630Z,100764.34
2017-11-06T20:18:52.610Z,100766.07
2017-11-06T20:21:18.557Z,100766.50
2017-11-06T20:23:44.527Z,100770.39
2017-11-06T20:26:11.062Z,100767.53
2017-11-06T20:28:37.197Z,100770.75
2017-11-06T20:31:03.220Z,100776.25
2017-11-06T20:33:29.263Z,100778.12
2017-11-06T20:35:55.218Z,100782.83
2017-11-06T20:38:21.194Z,100786.11
2017-11-06T20:40:48.238Z,100785.55
2017-11-06T20:43:14.191Z,100782.30
2017-11-06T20:45:40.153Z,100787.27
2017-11-06T20:48:07.151Z,100780.58
2017-11-06T20:50:33.211Z,100784.88
2017-11-06T20:52:59.153Z,100789.06
2017-11-06T20:55:25.113Z,100786.64
2017-11-06T20:57:51.109Z,100782.86
2017-11-06T21:00:17.189Z,100780.34
2017-11-06T21:02:43.175Z,100783.16
2017-11-06T21:05:09.129Z,100782.83
2017-11-06T21:07:35.109Z,100785.22
2017-11-06T21:10:01.059Z,100788.53
2017-11-06T21:12:27.273Z,100791.35
2017-11-06T21:14:54.127Z,100788.20
2017-11-06T21:17:20.102Z,100788.00
2017-11-06T21:19:46.132Z,100792.55
2017-11-06T21:22:12.093Z,100803.20
2017-11-06T21:24:38.073Z,100794.00
2017-11-06T21:27:04.015Z,100800.77
2017-11-06T21:29:29.959Z,100803.29
2017-11-06T21:31:55.902Z,100802.03
2017-11-06T21:34:21.840Z,100807.02
2017-11-06T21:36:47.793Z,100807.70
2017-11-06T21:39:13.819Z,100799.67
2017-11-06T21:41:39.792Z,100811.36
2017-11-06T21:44:05.796Z,100811.66
2017-11-06T21:46:31.727Z,100816.13
2017-11-06T21:48:57.699Z,100816.30
2017-11-06T21:51:23.691Z,100812.78
2017-11-06T21:53:49.669Z,100806.08
2017-11-06T21:56:15.604Z,100806.12
2017-11-06T21:58:41.559Z,100800.88
2017-11-06T22:01:07.492Z,100808.67
2017-11-06T22:03:33.425Z,100811.62
2017-11-06T22:05:59.424Z,100811.19
2017-11-06T22:08:25.362Z,100805.28
2017-11-06T22:10:51.309Z,100805.58
2017-11-06T22:13:17.290Z,100807.14
2017-11-06T22:15:43.293Z,100804.95
2017-11-06T22:18:09.240Z,100800.31
2017-11-06T22:20:35.235Z,100793.21
2017-11-06T22:23:01.233Z,100794.47
2017-11-06T22:25:27.183Z,100797.22
2017-11-06T22:27:53.171Z,100797.33
2017-11-06T22:30:19.712Z,100797.36
2017-11-06T22:32:45.655Z,100796.53
2017-11-06T22:35:11.640Z,100797.13
2017-11-06T22:37:37.583Z,100793.05
2017-11-06T22:40:03.530Z,100797.13
2017-11-06T22:42:29.477Z,100795.80
2017-11-06T22:44:55.429Z,100797.36
2017-11-06T22:47:21.375Z,100794.67
2017-11-06T22:49:47.351Z,100794.00
2017-11-06T22:52:13.293Z,100786.51
2017-11-06T22:54:39.227Z,100789.63
2017-11-06T22:57:05.163Z,100785.31
2017-11-06T22:59:31.088Z,100792.98
2017-11-06T23:01:57.024Z,100796.16
2017-11-06T23:04:22.983Z,100793.44
2017-11-06T23:06:48.921Z,100788.50
2017-11-06T23:09:14.935Z,100789.27
2017-11-06T23:11:40.891Z,100783.42
2017-11-06T23:14:06.850Z,100788.13
2017-11-06T23:16:32.784Z,100788.53
2017-11-06T23:18:58.736Z,100795.69
2017-11-06T23:21:24.678Z,100785.48
2017-11-06T23:23:50.614Z,100788.47
2017-11-06T23:26:16.580Z,100786.47
2017-11-06T23:28:42.512Z,100791.19
2017-11-06T23:31:08.439Z,100794.83
2017-11-06T23:33:34.412Z,100796.92
2017-11-06T23:36:00.327Z,100793.64
2017-11-06T23:38:26.257Z,100792.27
2017-11-06T23:40:52.179Z,100796.33
2017-11-06T23:43:18.100Z,100799.25
2017-11-06T23:45:44.079Z,100793.37
2017-11-06T23:48:10.021Z,100796.28
2017-11-06T23:50:35.959Z,100787.92
2017-11-06T23:53:01.917Z,100790.75
2017-11-06T23:55:27.880Z,100779.47
2017-11-06T23:57:53.867Z,100797.62
